Time;durP1;ratioP1;P1;durP2;ratioP2;P2;SDS_P1;SDS_P2;PMS_P1;PMS_P2;Temp;Humidity;BMP_temperature;BMP_pressure;BME280_temperature;BME280_humidity;BME280_pressure;Samples;Min_cycle;Max_cycle;Signal;HPM_P1;HPM_P2
2020/12/29 00:00:53;;;;;;;5.20;3.90;;;;;;;7.79;77.15;93766.31;4993676;28;21019;-83
2020/12/29 00:03:20;;;;;;;5.10;3.97;;;;;;;7.57;77.99;93787.53;4994223;28;20455;-84
2020/12/29 00:05:47;;;;;;;5.20;4.13;;;;;;;7.64;77.38;93760.72;4993753;28;20463;-83
2020/12/29 00:08:14;;;;;;;5.93;4.30;;;;;;;7.57;78.08;93772.69;4994495;28;20431;-84
2020/12/29 00:10:41;;;;;;;7.57;4.80;;;;;;;7.61;77.75;93794.09;4995451;28;20481;-84
2020/12/29 00:13:08;;;;;;;5.53;4.30;;;;;;;7.68;76.61;93797.81;4995857;28;20506;-85
2020/12/29 00:15:39;;;;;;;7.10;4.07;;;;;;;7.60;77.34;93795.06;4995929;28;20432;-84
2020/12/29 00:18:05;;;;;;;5.67;4.30;;;;;;;7.56;78.11;93806.75;4994544;28;20484;-83
2020/12/29 00:20:33;;;;;;;4.13;3.83;;;;;;;7.43;78.68;93825.28;4994855;28;20471;-87
2020/12/29 00:22:59;;;;;;;5.93;5.23;;;;;;;7.44;77.36;93834.78;4996181;28;20462;-83
2020/12/29 00:25:26;;;;;;;4.40;4.00;;;;;;;7.50;77.48;93822.94;4999415;28;20463;-83
2020/12/29 00:27:52;;;;;;;10.30;4.70;;;;;;;7.51;77.48;93845.47;4999149;28;20449;-83
2020/12/29 00:30:19;;;;;;;4.10;3.80;;;;;;;7.46;77.99;93841.50;4998151;28;20448;-84
2020/12/29 00:32:45;;;;;;;4.97;4.23;;;;;;;7.42;78.68;93849.75;4998943;28;20514;-84
2020/12/29 00:35:12;;;;;;;5.57;4.43;;;;;;;7.52;78.25;93862.78;4998334;28;20525;-85
2020/12/29 00:37:39;;;;;;;5.00;4.50;;;;;;;7.68;76.75;93863.06;4997877;28;20492;-83
2020/12/29 00:40:06;;;;;;;4.80;4.30;;;;;;;7.69;75.97;93849.88;4998394;28;20479;-84
2020/12/29 00:42:33;;;;;;;6.60;4.30;;;;;;;7.77;75.77;93836.13;4998185;28;20444;-83
2020/12/29 00:45:00;;;;;;;4.70;4.17;;;;;;;7.97;75.61;93842.97;4997649;28;20955;-85
2020/12/29 00:47:26;;;;;;;6.63;5.43;;;;;;;8.20;74.86;93825.19;4997013;28;20482;-84
2020/12/29 00:49:53;;;;;;;5.20;4.20;;;;;;;8.26;74.26;93834.25;4998276;28;20458;-84
2020/12/29 00:52:19;;;;;;;7.73;3.87;;;;;;;8.46;73.51;93817.56;4999535;28;20949;-84
2020/12/29 00:54:46;;;;;;;4.57;4.10;;;;;;;8.57;72.77;93827.84;4997342;28;20952;-84
2020/12/29 00:57:13;;;;;;;7.03;4.90;;;;;;;8.68;72.61;93811.97;4998866;28;20485;-84
2020/12/29 00:59:40;;;;;;;7.43;4.13;;;;;;;8.72;72.40;93798.63;4997357;28;20501;-84
2020/12/29 01:02:06;;;;;;;6.00;3.97;;;;;;;8.67;71.90;93765.88;4999097;28;20852;-83
2020/12/29 01:04:32;;;;;;;5.70;4.57;;;;;;;8.59;71.61;93754.47;4998270;28;20898;-84
2020/12/29 01:07:03;;;;;;;4.30;3.90;;;;;;;8.68;70.78;93751.00;4998579;28;20448;-85
2020/12/29 01:09:29;;;;;;;4.27;3.40;;;;;;;8.51;71.03;93747.38;4997717;28;20449;-88
2020/12/29 01:11:56;;;;;;;3.17;2.67;;;;;;;8.88;69.79;93738.63;4996779;28;20454;-85
2020/12/29 01:14:23;;;;;;;3.17;2.70;;;;;;;9.05;68.73;93731.75;4996290;28;20464;-85
2020/12/29 01:16:49;;;;;;;3.47;2.37;;;;;;;9.28;67.88;93723.31;4996209;28;20453;-85
2020/12/29 01:19:16;;;;;;;5.10;2.30;;;;;;;9.43;67.55;93709.66;4996010;28;20445;-85
2020/12/29 01:21:42;;;;;;;3.77;2.60;;;;;;;9.61;66.99;93702.59;4996960;28;20469;-84
2020/12/29 01:24:09;;;;;;;3.70;2.10;;;;;;;9.82;65.93;93728.44;4980549;28;20439;-84
2020/12/29 01:26:35;;;;;;;2.33;2.07;;;;;;;9.99;65.97;93711.84;4997663;28;20434;-84
2020/12/29 01:29:03;;;;;;;2.30;2.10;;;;;;;10.16;64.87;93689.97;4996203;28;20452;-84
2020/12/29 01:31:30;;;;;;;7.80;2.50;;;;;;;10.27;64.78;93707.25;4997584;28;20444;-84
2020/12/29 01:33:57;;;;;;;5.93;3.30;;;;;;;10.27;64.20;93746.59;4999514;28;20446;-84
2020/12/29 01:36:24;;;;;;;4.20;3.80;;;;;;;10.27;65.37;93724.78;4998254;28;20436;-85
2020/12/29 01:38:51;;;;;;;4.10;3.40;;;;;;;10.27;64.84;93733.47;4999721;28;20498;-84
2020/12/29 01:41:19;;;;;;;7.00;5.00;;;;;;;10.17;65.11;93746.69;4997222;28;20462;-85
2020/12/29 01:43:46;;;;;;;5.63;3.60;;;;;;;10.13;64.58;93708.66;4997900;28;20508;-85
2020/12/29 01:46:13;;;;;;;3.03;2.60;;;;;;;10.10;64.88;93732.53;4998639;28;21354;-84
2020/12/29 01:48:40;;;;;;;3.37;2.03;;;;;;;10.18;64.75;93747.50;4998616;28;20518;-85
2020/12/29 01:51:08;;;;;;;1.53;1.43;;;;;;;10.27;63.85;93751.00;4996111;28;20521;-85
2020/12/29 01:53:38;;;;;;;1.87;1.77;;;;;;;10.39;63.97;93760.22;4995060;28;20451;-84
2020/12/29 01:56:08;;;;;;;3.90;1.90;;;;;;;10.49;62.93;93761.78;4995291;28;20482;-85
2020/12/29 01:58:36;;;;;;;3.40;2.10;;;;;;;10.55;63.31;93782.13;4960905;28;20901;-84
2020/12/29 02:01:03;;;;;;;2.03;1.73;;;;;;;10.48;63.03;93788.97;4995262;28;20455;-84
2020/12/29 02:03:30;;;;;;;2.53;1.80;;;;;;;10.43;62.50;93811.41;4994970;28;20959;-86
2020/12/29 02:05:57;;;;;;;4.37;2.47;;;;;;;10.42;61.22;93784.38;4995933;28;20457;-86
2020/12/29 02:08:25;;;;;;;4.97;2.47;;;;;;;10.37;62.27;93781.38;4995795;28;20448;-84
2020/12/29 02:10:53;;;;;;;5.07;3.87;;;;;;;10.41;62.85;93787.16;4995942;28;20476;-84
2020/12/29 02:13:20;;;;;;;8.33;5.40;;;;;;;10.26;62.88;93775.59;4995664;28;20444;-90
2020/12/29 02:15:47;;;;;;;2.73;2.27;;;;;;;10.04;63.04;93777.72;4995491;28;20458;-82
2020/12/29 02:18:13;;;;;;;2.37;2.17;;;;;;;10.05;63.67;93755.75;4994866;28;20578;-85
2020/12/29 02:20:41;;;;;;;4.90;4.07;;;;;;;10.13;63.34;93741.91;4994786;28;20449;-84
2020/12/29 02:23:08;;;;;;;2.87;2.60;;;;;;;10.22;62.33;93767.22;4995097;28;20488;-83
2020/12/29 02:25:35;;;;;;;3.10;2.20;;;;;;;10.46;60.93;93764.72;4994437;28;20448;-84
2020/12/29 02:28:01;;;;;;;3.10;1.97;;;;;;;10.64;60.83;93754.13;4994640;28;20436;-85
2020/12/29 02:30:28;;;;;;;3.13;2.20;;;;;;;10.74;60.11;93746.13;4994970;28;20456;-84
2020/12/29 02:32:54;;;;;;;4.43;1.60;;;;;;;10.86;60.61;93747.47;4994675;28;20843;-84
2020/12/29 02:35:20;;;;;;;1.80;1.70;;;;;;;10.94;60.27;93770.28;4995009;28;20794;-84
2020/12/29 02:37:47;;;;;;;2.23;1.50;;;;;;;11.07;58.71;93765.41;4994347;28;20492;-85
2020/12/29 02:40:15;;;;;;;2.30;1.60;;;;;;;10.97;60.68;93776.03;4994320;28;20551;-85
2020/12/29 02:42:41;;;;;;;1.87;1.77;;;;;;;11.00;60.79;93770.50;4994608;28;20797;-85
2020/12/29 02:45:08;;;;;;;3.97;1.83;;;;;;;11.07;59.61;93776.75;4976151;28;20436;-84
2020/12/29 02:47:34;;;;;;;2.07;1.60;;;;;;;11.06;58.98;93774.28;4993956;28;20823;-84
2020/12/29 02:50:01;;;;;;;1.70;1.50;;;;;;;11.13;60.26;93775.28;4994112;28;20460;-84
2020/12/29 02:52:27;;;;;;;2.17;1.70;;;;;;;11.18;59.35;93799.22;4994484;28;20539;-85
2020/12/29 02:54:54;;;;;;;4.77;2.07;;;;;;;11.15;59.96;93810.06;4994300;28;20452;-85
2020/12/29 02:57:21;;;;;;;2.07;1.83;;;;;;;11.11;60.19;93809.56;4994186;28;20490;-84
2020/12/29 02:59:47;;;;;;;3.20;2.50;;;;;;;11.07;59.71;93813.50;4994110;28;20448;-84
2020/12/29 03:02:14;;;;;;;3.17;2.80;;;;;;;11.15;60.12;93808.25;4993485;28;20456;-84
2020/12/29 03:04:41;;;;;;;7.03;2.67;;;;;;;11.20;59.90;93801.69;4993966;28;20443;-84
2020/12/29 03:07:07;;;;;;;4.53;2.50;;;;;;;11.21;60.08;93819.91;4993870;28;20514;-84
2020/12/29 03:09:34;;;;;;;6.80;2.33;;;;;;;11.04;60.29;93813.00;4993825;28;20458;-84
2020/12/29 03:12:00;;;;;;;5.13;3.20;;;;;;;10.81;60.50;93828.47;4993602;28;20447;-84
2020/12/29 03:14:27;;;;;;;4.43;1.90;;;;;;;10.34;62.22;93836.75;4975216;28;20443;-87
2020/12/29 03:16:54;;;;;;;1.70;1.60;;;;;;;10.47;61.05;93831.09;4993671;28;20447;-84
2020/12/29 03:19:21;;;;;;;3.57;2.43;;;;;;;10.57;61.21;93838.84;4993818;28;20459;-84
2020/12/29 03:21:47;;;;;;;2.90;2.30;;;;;;;10.66;61.24;93838.72;4994030;28;20455;-84
2020/12/29 03:24:14;;;;;;;7.23;2.60;;;;;;;10.66;61.62;93848.41;4993723;28;20501;-84
2020/12/29 03:26:40;;;;;;;3.50;2.20;;;;;;;10.70;61.65;93821.72;4993943;28;21016;-84
2020/12/29 03:29:07;;;;;;;3.20;2.77;;;;;;;10.60;60.39;93843.78;4993295;28;20444;-83
2020/12/29 03:31:35;;;;;;;6.07;4.37;;;;;;;10.61;61.01;93848.06;4993693;28;20460;-84
2020/12/29 03:34:01;;;;;;;3.77;2.50;;;;;;;10.63;61.76;93840.84;4993879;28;20455;-84
2020/12/29 03:36:28;;;;;;;3.00;2.43;;;;;;;10.60;60.88;93854.28;4993774;28;20463;-84
2020/12/29 03:38:54;;;;;;;5.10;2.93;;;;;;;10.69;60.73;93855.97;4993748;28;20480;-84
2020/12/29 03:41:21;;;;;;;5.03;3.63;;;;;;;10.73;60.60;93852.88;4993721;28;20456;-84
2020/12/29 03:43:47;;;;;;;3.70;2.90;;;;;;;10.63;60.15;93851.34;4993348;28;20534;-85
2020/12/29 03:46:13;;;;;;;4.40;3.50;;;;;;;10.75;60.97;93860.59;4993856;28;20457;-84
2020/12/29 03:48:41;;;;;;;4.80;2.70;;;;;;;10.78;61.02;93884.72;4993243;28;20523;-84
2020/12/29 03:51:07;;;;;;;1.40;1.30;;;;;;;10.74;58.29;93851.09;4993042;28;20467;-84
2020/12/29 03:53:34;;;;;;;2.13;1.80;;;;;;;10.73;59.14;93858.13;4993158;28;20468;-84
2020/12/29 03:56:00;;;;;;;2.67;1.70;;;;;;;10.75;57.15;93839.63;4994357;28;20450;-86
2020/12/29 03:58:26;;;;;;;1.70;1.40;;;;;;;11.00;56.00;93854.50;4995339;28;20487;-84
2020/12/29 04:00:53;;;;;;;1.70;1.60;;;;;;;11.11;56.94;93846.31;4997760;28;20456;-84
2020/12/29 04:03:19;;;;;;;12.67;5.37;;;;;;;11.22;56.37;93862.75;4997867;28;20462;-84
2020/12/29 04:05:46;;;;;;;3.73;2.60;;;;;;;11.26;55.52;93843.06;4995357;28;20451;-84
2020/12/29 04:08:13;;;;;;;3.97;2.63;;;;;;;11.17;55.99;93850.94;4997418;28;20455;-84
2020/12/29 04:10:39;;;;;;;3.13;2.83;;;;;;;11.15;56.75;93845.00;4997655;28;20447;-84
2020/12/29 04:13:06;;;;;;;4.63;3.40;;;;;;;11.18;57.80;93863.06;4997058;28;20456;-84
2020/12/29 04:15:32;;;;;;;3.83;2.73;;;;;;;11.22;57.86;93868.00;4997536;28;20455;-84
2020/12/29 04:17:58;;;;;;;7.73;3.30;;;;;;;11.17;58.02;93850.94;4997542;28;20487;-84
2020/12/29 04:20:25;;;;;;;3.50;1.80;;;;;;;11.06;55.82;93856.47;4997444;28;20463;-84
2020/12/29 04:22:52;;;;;;;3.97;2.47;;;;;;;11.14;56.83;93856.50;4997492;28;20459;-84
2020/12/29 04:25:19;;;;;;;5.13;2.67;;;;;;;11.15;57.14;93863.41;4996968;28;20467;-84
2020/12/29 04:27:45;;;;;;;7.03;4.43;;;;;;;11.23;57.00;93882.78;4996800;28;20911;-84
2020/12/29 04:30:11;;;;;;;6.27;4.43;;;;;;;11.29;57.28;93897.91;4997061;28;20456;-84
2020/12/29 04:32:39;;;;;;;8.03;4.30;;;;;;;11.29;56.52;93890.03;4997073;28;20532;-84
2020/12/29 04:35:06;;;;;;;4.80;2.73;;;;;;;11.12;55.23;93897.03;4997320;28;20460;-86
2020/12/29 04:37:33;;;;;;;3.87;1.83;;;;;;;11.14;57.15;93895.06;4997387;28;20483;-84
2020/12/29 04:40:00;;;;;;;2.23;1.77;;;;;;;11.19;55.35;93900.66;4996974;28;20995;-85
2020/12/29 04:42:28;;;;;;;3.17;1.80;;;;;;;11.06;56.36;93923.91;4997377;28;20455;-85
2020/12/29 04:44:55;;;;;;;3.73;1.80;;;;;;;11.04;55.85;93908.31;4997012;28;20811;-84
2020/12/29 04:47:25;;;;;;;2.33;1.77;;;;;;;10.93;56.03;93910.38;4997375;28;20481;-84
2020/12/29 04:49:52;;;;;;;2.63;1.50;;;;;;;11.14;54.80;93888.00;4997262;28;20458;-85
2020/12/29 04:52:19;;;;;;;1.77;1.40;;;;;;;11.27;54.76;93887.53;4996805;28;20447;-84
2020/12/29 04:54:51;;;;;;;3.47;2.23;;;;;;;11.37;54.96;93890.06;4996384;28;20456;-85
2020/12/29 04:57:20;;;;;;;4.97;2.40;;;;;;;11.45;54.47;93890.91;4996413;28;20517;-84
2020/12/29 04:59:46;;;;;;;3.90;2.50;;;;;;;11.52;54.29;93896.34;4996033;28;20484;-84
2020/12/29 05:02:13;;;;;;;2.33;1.90;;;;;;;11.60;54.42;93904.25;4996559;28;20452;-84
2020/12/29 05:04:39;;;;;;;3.87;2.10;;;;;;;11.59;53.47;93896.53;4996563;28;20452;-84
2020/12/29 05:07:06;;;;;;;6.60;1.40;;;;;;;11.79;52.91;93895.28;4962470;28;20502;-84
2020/12/29 05:09:33;;;;;;;4.27;1.57;;;;;;;11.90;52.89;93897.63;4997060;28;20457;-84
2020/12/29 05:11:59;;;;;;;1.60;1.40;;;;;;;11.93;51.52;93894.66;4996771;28;20791;-85
2020/12/29 05:14:28;;;;;;;2.03;1.57;;;;;;;11.83;53.03;93887.88;4996491;28;20499;-85
2020/12/29 05:16:56;;;;;;;4.10;2.67;;;;;;;11.79;52.87;93882.97;4996498;28;20960;-88
2020/12/29 05:19:23;;;;;;;5.73;2.83;;;;;;;11.82;53.82;93904.63;4996132;28;20495;-84
2020/12/29 05:21:51;;;;;;;6.47;2.97;;;;;;;11.83;53.35;93906.28;4995931;28;20498;-84
2020/12/29 05:24:19;;;;;;;1.87;1.30;;;;;;;11.84;52.71;93892.16;4996165;28;20444;-85
2020/12/29 05:26:50;;;;;;;2.00;1.80;;;;;;;11.85;52.36;93901.69;4996187;28;20523;-85
2020/12/29 05:29:17;;;;;;;1.77;1.67;;;;;;;11.85;52.41;93897.25;4996465;28;20440;-85
2020/12/29 05:31:48;;;;;;;9.43;2.63;;;;;;;11.84;52.38;93894.78;4996303;28;20945;-85
2020/12/29 05:34:19;;;;;;;3.47;3.00;;;;;;;11.88;52.54;93875.94;4995946;28;20443;-84
2020/12/29 05:36:46;;;;;;;50.53;25.20;;;;;;;11.88;53.92;93885.63;4995714;28;20479;-84
2020/12/29 05:39:13;;;;;;;6.87;3.40;;;;;;;11.76;53.37;93879.81;4995791;28;20488;-84
2020/12/29 05:41:41;;;;;;;10.30;5.70;;;;;;;11.82;53.94;93867.84;4995334;28;20455;-84
2020/12/29 05:44:10;;;;;;;2.70;2.17;;;;;;;11.84;54.87;93889.53;4995638;28;20494;-85
2020/12/29 05:46:36;;;;;;;2.70;1.40;;;;;;;11.89;53.65;93864.41;4998134;28;20436;-84
2020/12/29 05:49:04;;;;;;;2.90;1.70;;;;;;;12.02;53.81;93898.09;5014468;28;20447;-84
2020/12/29 05:51:33;;;;;;;3.20;2.23;;;;;;;12.00;53.27;93894.81;5013981;28;20443;-84
2020/12/29 05:54:02;;;;;;;6.20;3.57;;;;;;;12.00;52.96;93906.16;5015263;28;20466;-85
2020/12/29 05:56:32;;;;;;;7.10;3.40;;;;;;;12.06;53.66;93900.25;5015521;28;20465;-84
2020/12/29 05:59:00;;;;;;;4.63;2.90;;;;;;;12.09;54.25;93899.09;5015344;28;20499;-83
2020/12/29 06:01:40;;;;;;;5.50;3.57;;;;;;;12.08;52.46;93885.13;5015046;28;20480;-83
2020/12/29 06:04:07;;;;;;;1.30;1.20;;;;;;;11.94;53.44;93890.22;5014606;28;20973;-82
2020/12/29 06:06:35;;;;;;;2.30;1.53;;;;;;;12.09;53.81;93893.84;5015042;28;20795;-85
2020/12/29 06:09:04;;;;;;;2.13;1.20;;;;;;;12.17;53.95;93895.66;5015449;28;20530;-83
2020/12/29 06:11:53;;;;;;;3.67;1.80;;;;;;;12.24;54.01;93891.38;5015200;28;20459;-84
2020/12/29 06:14:21;;;;;;;3.33;1.63;;;;;;;12.22;53.89;93904.69;5014446;28;20501;-85
2020/12/29 06:16:47;;;;;;;2.70;1.20;;;;;;;12.25;54.32;93907.00;5015283;28;20522;-80
2020/12/29 06:19:23;;;;;;;5.93;1.57;;;;;;;12.35;54.30;93886.59;5014201;28;21009;-81
2020/12/29 06:22:07;;;;;;;4.83;2.30;;;;;;;12.29;53.67;93897.78;5014031;28;20465;-82
2020/12/29 06:24:35;;;;;;;1.93;1.40;;;;;;;12.34;54.36;93908.63;5014140;28;20448;-83
2020/12/29 06:27:03;;;;;;;3.87;2.23;;;;;;;12.25;54.23;93911.44;5014244;28;20458;-82
2020/12/29 06:29:35;;;;;;;5.37;2.53;;;;;;;12.25;54.06;93909.63;5014632;28;20448;-83
2020/12/29 06:32:08;;;;;;;5.07;2.70;;;;;;;12.24;54.34;93901.91;5014302;28;20458;-83
2020/12/29 06:34:35;;;;;;;4.80;2.77;;;;;;;12.28;54.32;93914.56;5013918;28;20944;-83
2020/12/29 06:37:20;;;;;;;5.87;2.60;;;;;;;12.25;54.08;93922.78;5014206;28;20451;-84
2020/12/29 06:39:48;;;;;;;3.70;1.30;;;;;;;12.34;53.50;93913.91;5014331;28;20443;-82
2020/12/29 06:42:15;;;;;;;11.40;2.83;;;;;;;12.37;54.80;93933.78;5014206;28;20482;-83
2020/12/29 06:44:42;;;;;;;4.53;2.47;;;;;;;12.44;54.19;93933.97;5013704;28;20445;-84
2020/12/29 06:47:09;;;;;;;3.70;2.30;;;;;;;12.54;54.13;93945.97;5005967;28;20453;-84
2020/12/29 06:49:43;;;;;;;3.00;1.50;;;;;;;12.68;52.92;93953.19;4994329;28;20470;-83
2020/12/29 06:52:15;;;;;;;1.93;1.30;;;;;;;12.76;52.30;93968.16;4994311;28;20444;-84
2020/12/29 06:54:46;;;;;;;2.00;1.37;;;;;;;12.85;52.30;93969.78;4993775;28;20843;-84
2020/12/29 06:57:13;;;;;;;3.92;1.80;;;;;;;13.05;51.94;93953.66;4958902;28;20829;-84
2020/12/29 06:59:40;;;;;;;2.33;1.67;;;;;;;13.10;51.59;93935.53;4994122;28;20232;-84
2020/12/29 07:02:16;;;;;;;2.30;1.77;;;;;;;13.14;50.96;93948.19;4994188;28;20987;-84
2020/12/29 07:04:51;;;;;;;2.60;1.43;;;;;;;12.96;51.88;93969.44;4994370;28;20462;-81
2020/12/29 07:07:31;;;;;;;1.60;1.30;;;;;;;13.05;51.97;93985.25;4994120;28;20451;-84
2020/12/29 07:10:10;;;;;;;4.23;1.40;;;;;;;13.20;51.45;93984.41;4993310;28;20543;-83
2020/12/29 07:12:36;;;;;;;4.53;3.07;;;;;;;13.33;51.59;93974.19;4993755;28;20489;-84
2020/12/29 07:15:05;;;;;;;3.93;2.77;;;;;;;13.38;51.56;93980.75;4993778;28;20945;-86
2020/12/29 07:17:32;;;;;;;2.30;1.60;;;;;;;13.45;51.66;93972.00;4994778;28;20450;-85
2020/12/29 07:19:59;;;;;;;2.00;1.50;;;;;;;13.38;50.50;93989.50;4993904;28;20452;-83
2020/12/29 07:22:27;;;;;;;3.53;2.00;;;;;;;13.45;50.89;94001.00;4993403;28;20448;-80
2020/12/29 07:24:55;;;;;;;2.43;1.73;;;;;;;13.47;50.25;93998.19;4993307;28;20815;-80
2020/12/29 07:27:22;;;;;;;4.17;1.73;;;;;;;13.58;51.22;93995.16;4958828;28;20488;-81
2020/12/29 07:29:52;;;;;;;2.60;2.10;;;;;;;13.47;52.25;93996.38;4993802;28;20807;-78
2020/12/29 07:32:19;;;;;;;3.20;2.23;;;;;;;13.54;52.10;94020.22;4992262;28;20938;-81
2020/12/29 07:34:47;;;;;;;5.27;2.97;;;;;;;13.67;52.19;94025.81;4992920;28;20924;-81
2020/12/29 07:37:16;;;;;;;3.57;2.50;;;;;;;13.67;50.39;94017.06;4992886;28;20459;-83
2020/12/29 07:39:45;;;;;;;3.33;1.90;;;;;;;13.78;50.51;94024.59;4993352;28;20494;-81
2020/12/29 07:42:14;;;;;;;3.53;1.53;;;;;;;13.75;50.76;94017.03;4993413;28;20472;-84
2020/12/29 07:44:40;;;;;;;1.27;1.17;;;;;;;13.70;50.72;94030.72;4958990;28;20455;-81
2020/12/29 07:47:07;;;;;;;5.63;2.27;;;;;;;13.74;51.01;94025.94;4992866;28;20455;-80
2020/12/29 07:49:34;;;;;;;3.23;1.97;;;;;;;13.86;49.75;94020.09;4992963;28;20453;-83
2020/12/29 07:52:00;;;;;;;3.77;2.00;;;;;;;14.01;50.77;94043.97;4993099;28;20803;-82
2020/12/29 07:54:27;;;;;;;6.97;1.30;;;;;;;14.11;49.40;94056.94;4990790;28;20447;-80
2020/12/29 07:56:54;;;;;;;2.40;1.60;;;;;;;14.09;49.56;94059.75;4958594;28;20448;-82
2020/12/29 07:59:22;;;;;;;1.87;1.63;;;;;;;13.88;50.34;94046.34;4993318;28;20497;-81
2020/12/29 08:01:54;;;;;;;6.57;2.47;;;;;;;13.95;50.72;94063.13;4992899;28;20449;-84
2020/12/29 08:04:28;;;;;;;3.23;1.40;;;;;;;14.03;49.09;94057.81;4992946;28;20881;-81
2020/12/29 08:06:55;;;;;;;2.37;1.30;;;;;;;14.09;49.12;94057.09;4992794;28;20440;-79
2020/12/29 08:09:21;;;;;;;2.80;1.50;;;;;;;14.15;48.37;94051.13;4993094;28;20458;-82
2020/12/29 08:11:49;;;;;;;1.70;1.40;;;;;;;14.32;49.16;94059.81;4992814;28;20521;-81
2020/12/29 08:14:15;;;;;;;6.07;3.10;;;;;;;14.47;49.58;94029.09;4992596;28;20501;-80
2020/12/29 08:16:42;;;;;;;8.80;2.13;;;;;;;14.57;49.65;94050.78;4993009;28;20455;-81
2020/12/29 08:19:09;;;;;;;5.40;3.70;;;;;;;14.67;48.91;94058.47;4992726;28;20496;-80
2020/12/29 08:21:38;;;;;;;13.27;5.20;;;;;;;14.71;49.80;94037.81;4993650;28;20451;-82
2020/12/29 08:24:05;;;;;;;4.73;2.80;;;;;;;14.72;47.95;94069.31;5008086;28;20473;-81
2020/12/29 08:26:32;;;;;;;1.83;1.60;;;;;;;14.75;47.59;94049.69;5004896;28;20453;-81
2020/12/29 08:29:00;;;;;;;5.63;3.90;;;;;;;14.75;48.24;94052.34;4992944;28;20963;-81
2020/12/29 08:31:28;;;;;;;8.40;3.37;;;;;;;14.69;49.06;94074.13;4992644;28;20486;-82
2020/12/29 08:33:56;;;;;;;2.77;2.20;;;;;;;14.69;49.53;94090.81;4993135;28;21215;-82
2020/12/29 08:36:27;;;;;;;3.63;2.30;;;;;;;14.67;48.00;94065.56;4993203;28;20582;-83
2020/12/29 08:39:20;;;;;;;2.10;1.90;;;;;;;14.76;49.27;94073.28;4992896;28;20488;-82
2020/12/29 08:41:53;;;;;;;4.47;2.93;;;;;;;14.82;48.86;94093.72;4992558;28;20499;-82
2020/12/29 08:44:20;;;;;;;3.10;1.83;;;;;;;14.87;47.74;94080.78;4993800;28;20459;-83
2020/12/29 08:46:47;;;;;;;4.27;2.00;;;;;;;14.95;48.57;94084.38;4996496;28;20455;-82
2020/12/29 08:49:14;;;;;;;3.87;1.83;;;;;;;15.05;48.17;94114.03;4996995;28;20486;-82
2020/12/29 08:51:41;;;;;;;4.00;1.37;;;;;;;14.98;48.23;94102.50;4996271;28;20444;-82
2020/12/29 08:54:09;;;;;;;3.63;1.20;;;;;;;14.96;47.84;94099.22;4978022;28;20477;-82
2020/12/29 08:56:36;;;;;;;1.80;1.30;;;;;;;15.05;48.11;94099.00;4996091;28;20459;-83
2020/12/29 08:59:11;;;;;;;2.20;1.47;;;;;;;15.13;48.47;94113.97;4995953;28;20559;-83
2020/12/29 09:01:40;;;;;;;9.47;1.60;;;;;;;15.13;48.53;94108.69;4996058;28;20501;-82
2020/12/29 09:04:34;;;;;;;2.43;1.27;;;;;;;15.20;48.41;94112.25;4996015;28;20542;-82
2020/12/29 09:07:03;;;;;;;4.23;1.73;;;;;;;15.30;47.94;94107.53;4955028;29;20492;-82
2020/12/29 09:09:30;;;;;;;2.70;1.40;;;;;;;15.36;47.74;94112.13;4954954;29;20490;-82
2020/12/29 09:12:11;;;;;;;2.80;1.20;;;;;;;15.31;47.15;94119.75;4954919;29;20454;-82
2020/12/29 09:14:39;;;;;;;5.93;1.47;;;;;;;15.27;47.38;94107.06;4907119;29;20490;-82
2020/12/29 09:17:07;;;;;;;6.70;1.50;;;;;;;15.24;47.62;94099.50;4954893;29;20445;-82
2020/12/29 09:19:34;;;;;;;1.70;1.20;;;;;;;15.16;47.56;94116.25;4954790;29;20491;-81
2020/12/29 09:22:05;;;;;;;4.17;1.17;;;;;;;15.22;48.48;94099.69;4955293;29;20454;-82
2020/12/29 09:24:31;;;;;;;5.53;1.53;;;;;;;15.15;48.21;94104.03;4954630;29;20502;-82
2020/12/29 09:26:58;;;;;;;1.30;1.20;;;;;;;15.13;47.52;94106.84;4954467;29;20496;-84
2020/12/29 09:29:24;;;;;;;2.10;1.20;;;;;;;15.14;48.18;94105.03;4954465;29;20454;-82
2020/12/29 09:31:54;;;;;;;2.73;1.40;;;;;;;15.15;47.60;94101.41;4954428;29;21104;-82
2020/12/29 09:34:22;;;;;;;1.77;1.50;;;;;;;15.26;48.77;94098.31;4954576;29;20529;-82
2020/12/29 09:36:48;;;;;;;2.60;1.43;;;;;;;15.31;47.69;94087.22;4954395;29;20454;-81
2020/12/29 09:39:15;;;;;;;9.03;1.63;;;;;;;15.39;47.61;94100.38;4921902;29;20538;-82
2020/12/29 09:41:41;;;;;;;3.47;1.20;;;;;;;15.50;47.60;94107.88;4957967;28;20963;-82
2020/12/29 09:44:08;;;;;;;2.20;1.23;;;;;;;15.65;46.78;94107.94;4995260;28;20458;-82
2020/12/29 09:46:36;;;;;;;1.97;1.40;;;;;;;15.80;47.73;94098.19;4995341;28;20462;-81
2020/12/29 09:49:02;;;;;;;2.60;1.53;;;;;;;15.88;46.06;94098.09;4995822;28;20452;-82
2020/12/29 09:51:30;;;;;;;2.10;1.20;;;;;;;15.93;45.98;94108.97;4995515;28;20449;-82
2020/12/29 09:53:56;;;;;;;1.83;1.27;;;;;;;15.91;46.19;94096.94;4996006;28;20923;-81
2020/12/29 09:56:22;;;;;;;4.80;1.20;;;;;;;15.83;47.12;94086.41;4960476;28;20979;-81
2020/12/29 09:58:49;;;;;;;2.53;1.50;;;;;;;15.77;46.95;94090.63;4995407;28;20512;-81
2020/12/29 10:01:16;;;;;;;2.07;1.73;;;;;;;15.86;46.27;94080.75;4995549;28;20459;-81
2020/12/29 10:03:42;;;;;;;3.30;1.90;;;;;;;15.92;46.25;94082.72;4994960;28;20460;-81
2020/12/29 10:06:09;;;;;;;2.93;1.47;;;;;;;15.90;46.03;94082.03;4995389;28;20455;-82
2020/12/29 10:08:37;;;;;;;2.50;1.40;;;;;;;15.92;46.24;94080.88;4994841;28;21033;-82
2020/12/29 10:11:05;;;;;;;1.77;1.40;;;;;;;15.93;45.89;94087.81;4994762;28;20454;-83
2020/12/29 10:13:31;;;;;;;4.10;1.60;;;;;;;15.93;46.06;94081.69;4995197;28;20428;-83
2020/12/29 10:15:58;;;;;;;1.60;1.43;;;;;;;15.98;46.98;94113.72;4994862;28;20448;-82
2020/12/29 10:18:24;;;;;;;2.53;1.57;;;;;;;16.01;45.57;94119.47;4994743;28;20572;-83
2020/12/29 10:20:51;;;;;;;1.87;1.50;;;;;;;16.09;47.21;94102.66;4994493;28;20464;-82
2020/12/29 10:23:18;;;;;;;2.80;1.43;;;;;;;16.06;46.00;94098.56;4994488;28;20462;-81
2020/12/29 10:25:45;;;;;;;11.93;1.43;;;;;;;16.10;46.04;94099.84;4994398;28;20456;-82
2020/12/29 10:28:11;;;;;;;3.63;1.40;;;;;;;16.15;45.28;94082.59;4994069;28;20453;-82
2020/12/29 10:30:38;;;;;;;6.73;1.87;;;;;;;16.11;45.31;94100.66;4995095;28;20875;-82
2020/12/29 10:33:04;;;;;;;1.67;1.17;;;;;;;16.09;44.72;94092.91;4994446;28;20454;-82
2020/12/29 10:35:32;;;;;;;5.33;1.50;;;;;;;16.10;45.52;94097.19;4995161;28;20896;-82
2020/12/29 10:37:58;;;;;;;2.87;1.60;;;;;;;16.00;44.66;94098.47;4994302;28;20496;-82
2020/12/29 10:40:24;;;;;;;6.40;1.67;;;;;;;15.97;44.68;94088.25;4995037;28;20459;-81
2020/12/29 10:42:52;;;;;;;3.10;1.30;;;;;;;15.96;45.13;94095.38;4960935;28;20513;-83
2020/12/29 10:45:18;;;;;;;1.57;1.40;;;;;;;15.95;44.89;94100.84;4994547;28;20951;-81
2020/12/29 10:47:44;;;;;;;1.50;1.20;;;;;;;16.01;44.33;94106.25;4994353;28;20707;-81
2020/12/29 10:50:11;;;;;;;2.23;1.63;;;;;;;16.07;44.93;94094.91;4994128;28;20458;-82
2020/12/29 10:52:37;;;;;;;6.13;2.00;;;;;;;16.20;45.17;94096.13;4994371;28;20530;-80
2020/12/29 10:55:04;;;;;;;1.50;1.23;;;;;;;16.21;44.48;94103.06;4960420;28;20452;-82
2020/12/29 10:57:32;;;;;;;1.77;1.57;;;;;;;16.25;44.77;94104.31;4994057;28;20449;-81
2020/12/29 10:59:59;;;;;;;2.17;1.50;;;;;;;16.25;43.65;94091.09;4994269;28;20538;-83
2020/12/29 11:02:25;;;;;;;5.97;1.50;;;;;;;16.27;44.08;94102.31;4976058;28;20437;-82
2020/12/29 11:04:52;;;;;;;3.13;1.80;;;;;;;16.20;44.18;94099.59;4994091;28;20512;-80
2020/12/29 11:07:18;;;;;;;5.60;1.47;;;;;;;16.33;43.83;94112.16;4993864;28;20827;-81
2020/12/29 11:09:44;;;;;;;3.30;1.67;;;;;;;16.36;44.53;94087.97;4994141;28;20447;-82
2020/12/29 11:12:11;;;;;;;5.50;2.20;;;;;;;16.33;44.94;94097.09;4993514;28;20452;-81
2020/12/29 11:14:37;;;;;;;2.10;1.60;;;;;;;16.30;43.84;94094.00;4993255;28;20457;-81
2020/12/29 11:17:05;;;;;;;1.50;1.40;;;;;;;16.09;43.49;94108.78;4993405;28;20463;-81
2020/12/29 11:19:31;;;;;;;2.90;2.03;;;;;;;16.17;43.67;94104.41;4993964;28;20616;-81
2020/12/29 11:21:57;;;;;;;4.57;1.67;;;;;;;16.19;44.57;94111.19;4994872;28;20469;-81
2020/12/29 11:24:24;;;;;;;4.70;1.53;;;;;;;16.12;44.16;94112.88;4993430;28;20462;-82
2020/12/29 11:26:50;;;;;;;4.80;2.70;;;;;;;16.11;44.83;94108.59;4993401;28;20460;-83
2020/12/29 11:29:16;;;;;;;2.53;1.67;;;;;;;16.15;44.73;94114.34;4994052;28;20458;-82
2020/12/29 11:31:43;;;;;;;2.90;2.03;;;;;;;16.17;44.62;94109.69;4993379;28;20483;-82
2020/12/29 11:34:10;;;;;;;6.53;1.80;;;;;;;16.18;44.09;94100.75;4994197;28;20488;-82
2020/12/29 11:36:36;;;;;;;9.97;1.73;;;;;;;16.24;44.75;94114.09;4994046;28;20459;-81